Time;durP1;ratioP1;P1;durP2;ratioP2;P2;SDS_P1;SDS_P2;PMS_P1;PMS_P2;Temp;Humidity;BMP_temperature;BMP_pressure;BME280_temperature;BME280_humidity;BME280_pressure;Samples;Min_cycle;Max_cycle;Signal;HPM_P1;HPM_P2
2023/07/01 00:01:50;;;;;;;8.65;6.05;;;;;;;;;;5012909;28;20128;-77
2023/07/01 00:04:16;;;;;;;9.60;6.22;;;;;;;;;;5012983;28;20084;-77
2023/07/01 00:06:42;;;;;;;9.98;5.75;;;;;;;;;;5012918;28;20081;-77
2023/07/01 00:09:10;;;;;;;10.70;5.93;;;;;;;;;;5013329;28;20042;-77
2023/07/01 00:11:36;;;;;;;7.40;5.90;;;;;;;;;;5013147;28;20065;-76
2023/07/01 00:14:02;;;;;;;8.98;6.05;;;;;;;;;;5012980;28;20057;-77
2023/07/01 00:16:28;;;;;;;7.38;6.00;;;;;;;;;;5011668;28;20136;-78
2023/07/01 00:18:54;;;;;;;9.95;5.53;;;;;;;;;;5012724;28;20050;-78
2023/07/01 00:21:20;;;;;;;7.72;5.47;;;;;;;;;;5012321;28;20056;-77
2023/07/01 00:23:46;;;;;;;11.57;6.13;;;;;;;;;;5020605;28;20038;-77
2023/07/01 00:26:13;;;;;;;6.88;5.85;;;;;;;;;;5019441;28;20054;-78
2023/07/01 00:28:39;;;;;;;9.55;5.90;;;;;;;;;;5019409;28;20129;-77
2023/07/01 00:31:05;;;;;;;7.60;5.07;;;;;;;;;;5016436;28;20046;-77
2023/07/01 00:33:31;;;;;;;8.95;5.65;;;;;;;;;;5016301;28;20046;-78
2023/07/01 00:35:57;;;;;;;7.38;5.30;;;;;;;;;;5016111;28;20042;-77
2023/07/01 00:38:23;;;;;;;9.15;5.60;;;;;;;;;;5015911;28;20046;-77
2023/07/01 00:40:49;;;;;;;8.15;5.07;;;;;;;;;;5016062;28;20044;-77
2023/07/01 00:43:15;;;;;;;7.07;4.97;;;;;;;;;;5015908;28;20085;-78
2023/07/01 00:45:41;;;;;;;7.07;5.30;;;;;;;;;;5014599;28;20050;-78
2023/07/01 00:48:08;;;;;;;11.07;5.45;;;;;;;;;;5015446;28;20393;-77
2023/07/01 00:50:34;;;;;;;8.27;5.45;;;;;;;;;;4998170;28;20046;-78
2023/07/01 00:53:00;;;;;;;9.32;5.75;;;;;;;;;;5015705;28;20520;-78
2023/07/01 00:55:26;;;;;;;9.70;6.25;;;;;;;;;;5015627;28;20054;-77
2023/07/01 00:57:53;;;;;;;11.00;6.20;;;;;;;;;;5015498;28;20041;-78
2023/07/01 01:00:19;;;;;;;14.55;6.03;;;;;;;;;;5015816;28;20176;-77
2023/07/01 01:02:51;;;;;;;8.95;5.68;;;;;;;;;;5015133;28;20042;-77
2023/07/01 01:05:19;;;;;;;8.40;5.95;;;;;;;;;;5015031;28;20050;-78
2023/07/01 01:08:00;;;;;;;9.80;6.00;;;;;;;;;;5015353;28;20053;-77
2023/07/01 01:10:27;;;;;;;10.02;6.57;;;;;;;;;;5015062;28;20049;-77
2023/07/01 01:12:58;;;;;;;8.13;5.93;;;;;;;;;;5015496;28;20042;-75
2023/07/01 01:15:25;;;;;;;12.45;6.30;;;;;;;;;;5021338;28;20041;-76
2023/07/01 01:17:52;;;;;;;13.70;6.25;;;;;;;;;;5034938;28;20056;-75
2023/07/01 01:20:20;;;;;;;6.97;5.88;;;;;;;;;;5035047;28;20081;-75
2023/07/01 01:22:56;;;;;;;8.10;6.22;;;;;;;;;;5035122;28;20049;-76
2023/07/01 01:25:37;;;;;;;10.57;6.57;;;;;;;;;;5034803;28;20127;-75
2023/07/01 01:28:04;;;;;;;8.73;6.63;;;;;;;;;;5034893;28;20054;-75
2023/07/01 01:30:34;;;;;;;9.43;6.65;;;;;;;;;;5034641;28;20431;-75
2023/07/01 01:33:00;;;;;;;11.82;7.00;;;;;;;;;;5033829;28;20052;-75
2023/07/01 01:35:27;;;;;;;9.95;6.95;;;;;;;;;;5034730;28;20104;-75
2023/07/01 01:38:03;;;;;;;8.35;7.20;;;;;;;;;;5034636;28;20083;-75
2023/07/01 01:40:29;;;;;;;9.25;7.35;;;;;;;;;;5034391;28;20413;-75
2023/07/01 01:42:58;;;;;;;9.82;6.78;;;;;;;;;;5034733;28;20129;-75
2023/07/01 01:45:24;;;;;;;9.10;7.45;;;;;;;;;;5034600;28;20042;-75
2023/07/01 01:47:50;;;;;;;10.75;7.65;;;;;;;;;;5016555;28;20388;-75
2023/07/01 01:50:17;;;;;;;10.52;6.80;;;;;;;;;;5034361;28;20037;-75
2023/07/01 01:52:43;;;;;;;8.57;7.45;;;;;;;;;;5034283;28;20045;-76
2023/07/01 01:55:11;;;;;;;9.23;7.18;;;;;;;;;;5027528;28;20037;-76
2023/07/01 01:57:37;;;;;;;10.80;7.35;;;;;;;;;;5013471;28;20594;-75
2023/07/01 02:00:08;;;;;;;8.30;6.82;;;;;;;;;;5014747;28;20049;-75
2023/07/01 02:02:35;;;;;;;8.25;7.05;;;;;;;;;;5014669;28;20057;-75
2023/07/01 02:05:01;;;;;;;9.73;7.88;;;;;;;;;;5014525;28;20042;-75
2023/07/01 02:07:27;;;;;;;10.05;7.22;;;;;;;;;;5014601;28;20045;-75
2023/07/01 02:09:53;;;;;;;8.73;7.50;;;;;;;;;;5014130;28;20053;-75
2023/07/01 02:12:19;;;;;;;8.93;7.55;;;;;;;;;;5012905;28;20117;-76
2023/07/01 02:14:45;;;;;;;9.63;7.85;;;;;;;;;;5015074;28;20172;-76
2023/07/01 02:17:11;;;;;;;10.07;7.90;;;;;;;;;;5034034;28;20049;-75
2023/07/01 02:19:37;;;;;;;11.20;7.32;;;;;;;;;;5034034;28;20044;-75
2023/07/01 02:22:03;;;;;;;11.90;8.18;;;;;;;;;;5033694;28;20038;-75
2023/07/01 02:24:29;;;;;;;8.85;7.95;;;;;;;;;;5033587;28;20400;-76
2023/07/01 02:26:55;;;;;;;10.70;8.02;;;;;;;;;;5034073;28;20045;-76
2023/07/01 02:29:22;;;;;;;12.82;8.45;;;;;;;;;;5033843;28;20049;-76
2023/07/01 02:31:48;;;;;;;10.90;8.00;;;;;;;;;;5033415;28;20548;-76
2023/07/01 02:34:14;;;;;;;9.10;7.88;;;;;;;;;;5033809;28;20060;-76
2023/07/01 02:36:42;;;;;;;9.85;8.40;;;;;;;;;;5033219;28;20042;-76
2023/07/01 02:39:08;;;;;;;9.80;8.10;;;;;;;;;;5033510;28;20057;-76
2023/07/01 02:41:34;;;;;;;11.10;8.02;;;;;;;;;;5033601;28;20052;-76
2023/07/01 02:44:00;;;;;;;9.20;7.50;;;;;;;;;;5033379;28;20038;-75
2023/07/01 02:46:27;;;;;;;9.18;7.53;;;;;;;;;;5033596;28;20144;-75
2023/07/01 02:48:53;;;;;;;9.25;7.65;;;;;;;;;;5033519;28;20399;-75
2023/07/01 02:51:19;;;;;;;9.00;7.07;;;;;;;;;;5033005;28;20037;-75
2023/07/01 02:53:45;;;;;;;10.20;7.03;;;;;;;;;;5033608;28;20239;-75
2023/07/01 02:56:11;;;;;;;8.30;7.18;;;;;;;;;;5018218;28;20052;-75
2023/07/01 02:58:37;;;;;;;11.70;7.35;;;;;;;;;;5013576;28;20042;-75
2023/07/01 03:01:03;;;;;;;7.95;6.50;;;;;;;;;;5012159;28;20054;-75
2023/07/01 03:03:30;;;;;;;7.95;7.05;;;;;;;;;;5013614;28;20400;-76
2023/07/01 03:05:56;;;;;;;9.45;6.88;;;;;;;;;;5013182;28;20447;-76
2023/07/01 03:08:22;;;;;;;8.73;6.63;;;;;;;;;;5013663;28;20484;-76
2023/07/01 03:10:48;;;;;;;8.52;7.55;;;;;;;;;;5013525;28;20037;-76
2023/07/01 03:13:15;;;;;;;9.05;6.63;;;;;;;;;;5013281;28;20484;-75
2023/07/01 03:15:41;;;;;;;8.35;7.25;;;;;;;;;;5021670;28;20454;-75
2023/07/01 03:18:08;;;;;;;8.88;7.13;;;;;;;;;;5032910;28;20133;-75
2023/07/01 03:20:34;;;;;;;9.48;6.97;;;;;;;;;;5032872;28;20452;-75
2023/07/01 03:23:00;;;;;;;7.40;6.70;;;;;;;;;;5033467;28;20049;-75
2023/07/01 03:25:26;;;;;;;9.27;7.38;;;;;;;;;;5032433;28;20380;-76
2023/07/01 03:27:53;;;;;;;9.80;6.82;;;;;;;;;;5033164;28;20057;-76
2023/07/01 03:30:19;;;;;;;8.98;7.03;;;;;;;;;;5032787;28;20042;-76
2023/07/01 03:32:48;;;;;;;8.68;7.30;;;;;;;;;;5032753;28;20045;-75
2023/07/01 03:35:15;;;;;;;8.70;7.30;;;;;;;;;;5032643;28;20045;-75
2023/07/01 03:37:42;;;;;;;8.98;7.57;;;;;;;;;;5032912;28;20041;-75
2023/07/01 03:40:11;;;;;;;10.60;8.10;;;;;;;;;;5033068;28;20060;-75
2023/07/01 03:42:37;;;;;;;9.60;8.00;;;;;;;;;;5033124;28;20046;-76
2023/07/01 03:45:07;;;;;;;9.68;7.85;;;;;;;;;;5032739;28;20052;-76
2023/07/01 03:47:35;;;;;;;8.95;7.13;;;;;;;;;;5032737;28;20045;-76
2023/07/01 03:50:01;;;;;;;9.93;7.75;;;;;;;;;;5032702;28;20087;-76
2023/07/01 03:52:27;;;;;;;8.63;7.68;;;;;;;;;;5032883;28;20045;-76
2023/07/01 03:54:53;;;;;;;8.48;7.57;;;;;;;;;;5028116;28;20428;-76
2023/07/01 03:57:19;;;;;;;9.70;7.55;;;;;;;;;;5015344;28;20057;-75
2023/07/01 03:59:45;;;;;;;10.00;8.07;;;;;;;;;;5016790;28;20046;-76
2023/07/01 04:02:11;;;;;;;11.23;7.20;;;;;;;;;;5016596;28;20046;-76
2023/07/01 04:04:38;;;;;;;9.93;7.20;;;;;;;;;;5016740;28;20053;-75
2023/07/01 04:07:05;;;;;;;12.85;7.60;;;;;;;;;;5017277;28;20073;-76
2023/07/01 04:09:31;;;;;;;10.90;7.93;;;;;;;;;;5022123;28;20076;-76
2023/07/01 04:11:57;;;;;;;9.18;7.97;;;;;;;;;;5021873;28;20053;-76
2023/07/01 04:14:24;;;;;;;9.02;7.85;;;;;;;;;;5020073;28;20049;-76
2023/07/01 04:16:50;;;;;;;11.13;8.65;;;;;;;;;;5034272;28;20049;-76
2023/07/01 04:19:16;;;;;;;10.15;8.35;;;;;;;;;;5036306;28;20041;-76
2023/07/01 04:21:43;;;;;;;9.52;8.50;;;;;;;;;;5036101;28;20073;-76
2023/07/01 04:24:09;;;;;;;9.38;7.72;;;;;;;;;;5036185;28;20070;-76
2023/07/01 04:26:35;;;;;;;10.57;7.95;;;;;;;;;;5035686;28;20057;-76
2023/07/01 04:29:01;;;;;;;9.80;8.07;;;;;;;;;;5035806;28;20447;-76
2023/07/01 04:31:28;;;;;;;10.27;7.80;;;;;;;;;;5035740;28;20468;-76
2023/07/01 04:33:54;;;;;;;10.63;8.48;;;;;;;;;;5035928;28;20041;-75
2023/07/01 04:36:20;;;;;;;10.30;8.70;;;;;;;;;;5036016;28;20471;-75
2023/07/01 04:38:46;;;;;;;9.32;8.02;;;;;;;;;;5036336;28;20049;-76
2023/07/01 04:41:13;;;;;;;8.80;7.22;;;;;;;;;;5035822;28;20045;-75
2023/07/01 04:43:39;;;;;;;8.75;7.65;;;;;;;;;;5035608;28;20045;-75
2023/07/01 04:46:05;;;;;;;8.43;7.53;;;;;;;;;;5035274;28;20132;-75
2023/07/01 04:48:31;;;;;;;8.65;7.32;;;;;;;;;;5035894;28;20045;-75
2023/07/01 04:50:57;;;;;;;9.20;7.68;;;;;;;;;;5035471;28;20045;-76
2023/07/01 04:53:23;;;;;;;9.15;6.93;;;;;;;;;;5035187;28;20582;-75
2023/07/01 04:55:50;;;;;;;9.13;7.10;;;;;;;;;;5022880;28;20049;-76
2023/07/01 04:58:17;;;;;;;8.77;6.85;;;;;;;;;;5015438;28;20061;-75
2023/07/01 05:00:43;;;;;;;7.35;6.55;;;;;;;;;;5015365;28;20152;-75
2023/07/01 05:03:09;;;;;;;7.82;6.68;;;;;;;;;;5016355;28;20062;-75
2023/07/01 05:05:35;;;;;;;8.48;6.82;;;;;;;;;;5015466;28;20046;-75
2023/07/01 05:08:01;;;;;;;8.35;6.15;;;;;;;;;;5014407;28;20081;-76
2023/07/01 05:10:27;;;;;;;9.05;6.20;;;;;;;;;;5015111;28;20046;-76
2023/07/01 05:12:53;;;;;;;7.30;6.25;;;;;;;;;;5015357;28;20053;-76
2023/07/01 05:15:19;;;;;;;7.93;5.72;;;;;;;;;;5020286;28;20484;-76
2023/07/01 05:17:45;;;;;;;6.93;5.97;;;;;;;;;;5035420;28;20048;-76
2023/07/01 05:20:11;;;;;;;6.68;5.80;;;;;;;;;;5035040;28;20120;-76
2023/07/01 05:22:38;;;;;;;6.63;5.70;;;;;;;;;;5034950;28;20049;-76
2023/07/01 05:25:04;;;;;;;8.50;6.47;;;;;;;;;;5034785;28;20131;-76
2023/07/01 05:27:31;;;;;;;7.80;5.95;;;;;;;;;;5034872;28;20058;-76
2023/07/01 05:29:57;;;;;;;7.88;5.15;;;;;;;;;;5034674;28;20087;-76
2023/07/01 05:32:24;;;;;;;6.70;5.55;;;;;;;;;;5035084;28;20515;-77
2023/07/01 05:34:50;;;;;;;5.78;4.93;;;;;;;;;;5033360;28;20054;-77
2023/07/01 05:37:16;;;;;;;5.30;4.75;;;;;;;;;;5034502;28;20041;-77
2023/07/01 05:39:42;;;;;;;5.40;4.53;;;;;;;;;;5034964;28;20132;-77
2023/07/01 05:42:08;;;;;;;5.00;4.50;;;;;;;;;;5034336;28;20049;-77
2023/07/01 05:44:34;;;;;;;7.22;4.40;;;;;;;;;;5035220;28;20037;-78
2023/07/01 05:47:00;;;;;;;5.15;4.38;;;;;;;;;;5034469;28;20042;-77
2023/07/01 05:49:26;;;;;;;4.55;4.03;;;;;;;;;;5034553;28;20553;-77
2023/07/01 05:51:52;;;;;;;5.47;4.07;;;;;;;;;;5034725;28;20455;-77
2023/07/01 05:54:18;;;;;;;5.85;4.50;;;;;;;;;;5035979;28;20476;-78
2023/07/01 05:56:44;;;;;;;6.93;4.43;;;;;;;;;;5036187;28;20041;-79
2023/07/01 05:59:11;;;;;;;6.60;3.80;;;;;;;;;;5034698;28;20120;-78
2023/07/01 06:01:38;;;;;;;6.00;4.30;;;;;;;;;;5036100;28;20061;-79
2023/07/01 06:04:05;;;;;;;5.95;3.83;;;;;;;;;;5036063;28;20104;-79
2023/07/01 06:06:31;;;;;;;10.32;4.47;;;;;;;;;;5036017;28;20096;-79
2023/07/01 06:08:57;;;;;;;5.75;3.60;;;;;;;;;;5034654;28;20050;-79
2023/07/01 06:11:23;;;;;;;5.63;3.40;;;;;;;;;;5035711;28;20128;-78
2023/07/01 06:13:49;;;;;;;5.30;3.40;;;;;;;;;;5033827;28;20038;-78
2023/07/01 06:16:15;;;;;;;5.13;3.45;;;;;;;;;;5033893;28;20053;-77
2023/07/01 06:18:41;;;;;;;4.85;3.13;;;;;;;;;;5033816;28;20042;-77
2023/07/01 06:21:08;;;;;;;4.82;3.42;;;;;;;;;;5033745;28;20042;-76
2023/07/01 06:23:35;;;;;;;3.53;2.90;;;;;;;;;;5032819;28;20076;-76
2023/07/01 06:26:01;;;;;;;11.45;3.20;;;;;;;;;;5034030;28;20139;-76
2023/07/01 06:28:27;;;;;;;3.45;2.75;;;;;;;;;;5034095;28;20057;-76
2023/07/01 06:30:54;;;;;;;3.28;2.50;;;;;;;;;;5033722;28;20618;-76
2023/07/01 06:33:20;;;;;;;4.60;2.70;;;;;;;;;;5033745;28;20041;-76
2023/07/01 06:35:46;;;;;;;3.28;2.50;;;;;;;;;;5033672;28;20041;-75
2023/07/01 06:38:12;;;;;;;6.97;2.75;;;;;;;;;;5034071;28;20206;-75
2023/07/01 06:40:38;;;;;;;3.45;3.15;;;;;;;;;;5033352;28;20037;-75
2023/07/01 06:43:05;;;;;;;3.10;2.80;;;;;;;;;;5033672;28;20399;-75
2023/07/01 06:45:31;;;;;;;3.13;2.70;;;;;;;;;;5033458;28;20038;-76
2023/07/01 06:47:58;;;;;;;2.65;2.42;;;;;;;;;;5033656;28;20042;-76
2023/07/01 06:50:25;;;;;;;3.78;2.40;;;;;;;;;;5032133;28;20124;-76
2023/07/01 06:52:51;;;;;;;3.10;2.35;;;;;;;;;;5033295;28;20056;-75
2023/07/01 06:55:18;;;;;;;3.75;2.30;;;;;;;;;;5025384;28;20038;-76
2023/07/01 06:57:44;;;;;;;2.97;1.90;;;;;;;;;;5013703;28;20101;-76
2023/07/01 07:00:12;;;;;;;2.70;2.00;;;;;;;;;;5013642;28;20073;-75
2023/07/01 07:02:38;;;;;;;3.78;1.90;;;;;;;;;;5013446;28;20369;-75
2023/07/01 07:05:08;;;;;;;3.33;1.90;;;;;;;;;;5013523;28;20397;-75
2023/07/01 07:07:34;;;;;;;3.20;2.10;;;;;;;;;;5013511;28;20500;-75
2023/07/01 07:10:00;;;;;;;3.92;2.38;;;;;;;;;;5013338;28;20531;-75
2023/07/01 07:12:27;;;;;;;3.08;2.03;;;;;;;;;;5013287;28;20054;-75
2023/07/01 07:14:53;;;;;;;2.38;1.90;;;;;;;;;;5014870;28;20385;-75
2023/07/01 07:17:19;;;;;;;4.90;2.20;;;;;;;;;;5033012;28;20042;-75
2023/07/01 07:19:45;;;;;;;4.38;2.20;;;;;;;;;;5033290;28;20068;-75
2023/07/01 07:22:11;;;;;;;2.95;2.08;;;;;;;;;;5033062;28;20451;-75
2023/07/01 07:24:37;;;;;;;2.97;2.10;;;;;;;;;;5032733;28;20107;-75
2023/07/01 07:27:03;;;;;;;3.63;2.15;;;;;;;;;;5033071;28;20054;-75
2023/07/01 07:29:30;;;;;;;2.70;2.20;;;;;;;;;;5033421;28;20046;-75
2023/07/01 07:31:57;;;;;;;4.07;2.20;;;;;;;;;;5034501;28;20416;-76
2023/07/01 07:34:23;;;;;;;4.05;2.30;;;;;;;;;;5036679;28;20059;-76
2023/07/01 07:36:49;;;;;;;2.92;2.25;;;;;;;;;;5036835;28;20400;-75
2023/07/01 07:39:16;;;;;;;3.03;2.42;;;;;;;;;;5037234;28;20096;-75
2023/07/01 07:41:42;;;;;;;3.53;2.20;;;;;;;;;;5036852;28;20045;-75
2023/07/01 07:44:08;;;;;;;4.43;2.95;;;;;;;;;;5036781;28;20365;-75
2023/07/01 07:46:35;;;;;;;5.00;3.10;;;;;;;;;;5037066;28;20049;-75
2023/07/01 07:49:01;;;;;;;4.43;2.90;;;;;;;;;;5037106;28;20131;-76
2023/07/01 07:51:27;;;;;;;3.97;3.22;;;;;;;;;;5040886;28;20041;-76
2023/07/01 07:53:54;;;;;;;4.72;3.40;;;;;;;;;;5042298;28;20053;-75
2023/07/01 07:56:20;;;;;;;6.03;3.35;;;;;;;;;;5025541;28;20050;-75
2023/07/01 07:58:46;;;;;;;3.78;2.70;;;;;;;;;;5016992;28;20120;-76
2023/07/01 08:01:12;;;;;;;3.05;2.72;;;;;;;;;;5016529;28;20054;-77
2023/07/01 08:03:40;;;;;;;7.25;3.10;;;;;;;;;;5016889;28;20133;-77
2023/07/01 08:06:06;;;;;;;6.55;3.22;;;;;;;;;;5016424;28;20469;-76
2023/07/01 08:08:32;;;;;;;4.32;3.42;;;;;;;;;;5016715;28;20073;-76
2023/07/01 08:10:59;;;;;;;4.35;3.13;;;;;;;;;;5016614;28;20045;-76
2023/07/01 08:13:25;;;;;;;7.85;3.15;;;;;;;;;;5016700;28;20103;-76
2023/07/01 08:15:51;;;;;;;3.42;3.00;;;;;;;;;;5025907;28;20438;-76
2023/07/01 08:18:17;;;;;;;3.85;3.30;;;;;;;;;;5036031;28;20049;-76
2023/07/01 08:20:47;;;;;;;6.20;3.38;;;;;;;;;;5036040;28;20042;-77
2023/07/01 08:23:15;;;;;;;4.75;3.33;;;;;;;;;;5036419;28;20103;-77
2023/07/01 08:25:41;;;;;;;5.05;2.92;;;;;;;;;;5034901;28;20068;-76
2023/07/01 08:28:08;;;;;;;4.32;3.30;;;;;;;;;;5034898;28;20103;-76
2023/07/01 08:30:34;;;;;;;4.43;3.45;;;;;;;;;;5034567;28;20041;-76
2023/07/01 08:33:00;;;;;;;5.05;3.30;;;;;;;;;;5034812;28;20313;-77
2023/07/01 08:35:26;;;;;;;5.00;3.20;;;;;;;;;;5033180;28;20049;-77
2023/07/01 08:37:52;;;;;;;4.80;3.50;;;;;;;;;;5034587;28;20049;-77
2023/07/01 08:40:18;;;;;;;5.07;3.63;;;;;;;;;;5034427;28;20054;-77
2023/07/01 08:42:48;;;;;;;3.88;3.42;;;;;;;;;;5034250;28;20125;-77
2023/07/01 08:45:14;;;;;;;4.32;3.40;;;;;;;;;;5034418;28;20042;-77
2023/07/01 08:47:41;;;;;;;3.78;3.42;;;;;;;;;;5034456;28;20455;-76
2023/07/01 08:50:07;;;;;;;4.82;3.80;;;;;;;;;;5034675;28;20053;-77
2023/07/01 08:52:40;;;;;;;5.43;3.95;;;;;;;;;;5016852;28;20041;-77
2023/07/01 08:55:08;;;;;;;4.75;3.97;;;;;;;;;;5034467;28;20049;-76
2023/07/01 08:57:34;;;;;;;6.38;5.22;;;;;;;;;;5034609;28;20045;-76
2023/07/01 09:00:00;;;;;;;14.40;6.13;;;;;;;;;;5034464;28;20128;-76
2023/07/01 09:02:27;;;;;;;9.02;6.40;;;;;;;;;;5034079;28;20049;-76
2023/07/01 09:04:53;;;;;;;7.85;5.15;;;;;;;;;;5034998;28;20057;-77
2023/07/01 09:07:19;;;;;;;6.55;5.93;;;;;;;;;;5034912;28;20124;-77
2023/07/01 09:09:45;;;;;;;8.43;5.75;;;;;;;;;;5034254;28;20088;-76
2023/07/01 09:12:11;;;;;;;8.88;6.10;;;;;;;;;;5034095;28;20124;-76
2023/07/01 09:15:13;;;;;;;9.48;6.75;;;;;;;;;;5034350;28;20077;-77
2023/07/01 09:17:40;;;;;;;13.18;7.40;;;;;;;;;;5031708;28;20052;-77
2023/07/01 09:20:13;;;;;;;12.25;7.40;;;;;;;;;;5031646;28;20141;-77
2023/07/01 09:22:40;;;;;;;12.77;7.53;;;;;;;;;;5031878;28;20487;-77
2023/07/01 09:25:07;;;;;;;10.75;7.63;;;;;;;;;;4992027;28;1147424;-76
2023/07/01 09:27:46;;;;;;;9.43;7.50;;;;;;;;;;5032751;28;20397;-78
2023/07/01 09:30:21;;;;;;;12.13;7.97;;;;;;;;;;5032475;28;20064;-77
2023/07/01 09:32:49;;;;;;;10.10;8.32;;;;;;;;;;5016078;28;20054;-77
2023/07/01 09:35:16;;;;;;;10.15;8.18;;;;;;;;;;5032417;28;20046;-77
2023/07/01 09:37:42;;;;;;;11.95;8.85;;;;;;;;;;5015780;28;20598;-77
2023/07/01 09:40:18;;;;;;;12.63;8.32;;;;;;;;;;5032642;28;20045;-76
2023/07/01 09:42:44;;;;;;;;;;;;;;;;;;5016533;28;20056;-76
2023/07/01 09:45:10;;;;;;;11.68;8.48;;;;;;;;;;5032128;28;19921;-76
2023/07/01 09:47:36;;;;;;;10.48;8.18;;;;;;;;;;5032353;28;20091;-76
2023/07/01 09:50:03;;;;;;;11.70;8.57;;;;;;;;;;5031947;28;20400;-77
2023/07/01 09:52:33;;;;;;;15.63;8.50;;;;;;;;;;5017209;28;20393;-77
2023/07/01 09:55:00;;;;;;;12.27;8.32;;;;;;;;;;5013531;28;20439;-76
2023/07/01 09:57:27;;;;;;;11.23;8.27;;;;;;;;;;5014390;28;20122;-77
2023/07/01 09:59:53;;;;;;;10.75;7.55;;;;;;;;;;5014219;28;20046;-77
2023/07/01 10:02:19;;;;;;;11.40;7.32;;;;;;;;;;5014409;28;20156;-76
2023/07/01 10:04:46;;;;;;;9.10;7.78;;;;;;;;;;5014564;28;20065;-76
2023/07/01 10:07:12;;;;;;;11.20;7.15;;;;;;;;;;5013962;28;20479;-77
2023/07/01 10:09:44;;;;;;;8.48;6.65;;;;;;;;;;5014417;28;20076;-77
2023/07/01 10:12:12;;;;;;;10.48;7.85;;;;;;;;;;5014408;28;20042;-77
2023/07/01 10:14:39;;;;;;;8.65;6.80;;;;;;;;;;5013640;28;20579;-77
2023/07/01 10:17:05;;;;;;;10.75;6.93;;;;;;;;;;5014610;28;20084;-77
2023/07/01 10:19:35;;;;;;;9.88;6.65;;;;;;;;;;5013942;28;20507;-77
2023/07/01 10:22:23;;;;;;;10.55;7.32;;;;;;;;;;5014002;28;20117;-77
2023/07/01 10:25:02;;;;;;;9.23;6.55;;;;;;;;;;5014607;28;20065;-77
2023/07/01 10:27:41;;;;;;;10.50;6.65;;;;;;;;;;5013777;28;20492;-77
2023/07/01 10:30:08;;;;;;;7.95;6.40;;;;;;;;;;5014201;28;20049;-78
2023/07/01 10:32:37;;;;;;;8.43;5.78;;;;;;;;;;5013896;28;20046;-77
2023/07/01 10:35:06;;;;;;;6.32;5.60;;;;;;;;;;5013874;28;20290;-76
2023/07/01 10:37:33;;;;;;;8.15;5.78;;;;;;;;;;5013888;28;20108;-77
2023/07/01 10:40:00;;;;;;;8.18;6.40;;;;;;;;;;5013394;28;20120;-76
2023/07/01 10:42:33;;;;;;;9.10;6.68;;;;;;;;;;5013832;28;20429;-76
2023/07/01 10:45:11;;;;;;;9.07;5.90;;;;;;;;;;5013714;28;20049;-76
2023/07/01 10:47:44;;;;;;;6.32;5.70;;;;;;;;;;5013650;28;20057;-76
2023/07/01 10:50:11;;;;;;;7.07;6.15;;;;;;;;;;5013464;28;20086;-76
2023/07/01 10:52:56;;;;;;;11.38;6.35;;;;;;;;;;5012355;28;20061;-77
2023/07/01 10:55:38;;;;;;;11.52;6.13;;;;;;;;;;5013353;28;20050;-76
2023/07/01 10:58:23;;;;;;;6.25;5.63;;;;;;;;;;5013299;28;20432;-76
2023/07/01 11:00:52;;;;;;;8.55;6.25;;;;;;;;;;5013407;28;20041;-76
2023/07/01 11:03:34;;;;;;;6.85;6.13;;;;;;;;;;5013943;28;20212;-76
2023/07/01 11:06:03;;;;;;;8.38;5.95;;;;;;;;;;5013271;28;20049;-76
2023/07/01 11:08:33;;;;;;;7.25;5.65;;;;;;;;;;5013214;28;20042;-76
2023/07/01 11:10:59;;;;;;;7.15;5.85;;;;;;;;;;5013102;28;20077;-77
2023/07/01 11:13:26;;;;;;;7.20;4.93;;;;;;;;;;5013758;28;20476;-76
2023/07/01 11:16:02;;;;;;;5.40;4.70;;;;;;;;;;5022735;28;20444;-76
2023/07/01 11:18:43;;;;;;;7.47;5.53;;;;;;;;;;5033280;28;20061;-76
2023/07/01 11:21:10;;;;;;;8.85;5.40;;;;;;;;;;5031388;28;20053;-77
2023/07/01 11:23:36;;;;;;;6.43;5.30;;;;;;;;;;5032683;28;20128;-76
2023/07/01 11:26:02;;;;;;;6.22;5.47;;;;;;;;;;5032371;28;20052;-76
2023/07/01 11:28:35;;;;;;;6.78;5.55;;;;;;;;;;5032966;28;20095;-76
2023/07/01 11:31:24;;;;;;;7.50;5.72;;;;;;;;;;5033370;28;20041;-76
2023/07/01 11:33:54;;;;;;;6.28;4.88;;;;;;;;;;5037797;28;20096;-76
2023/07/01 11:36:34;;;;;;;6.53;4.63;;;;;;;;;;5037736;28;20385;-76
2023/07/01 11:39:03;;;;;;;5.53;4.80;;;;;;;;;;5034075;28;20114;-76
2023/07/01 11:41:30;;;;;;;6.40;4.50;;;;;;;;;;5033210;28;20037;-76
2023/07/01 11:43:56;;;;;;;6.25;4.35;;;;;;;;;;5032738;28;20555;-76
2023/07/01 11:46:38;;;;;;;7.22;5.03;;;;;;;;;;5031184;28;20054;-76
2023/07/01 11:49:23;;;;;;;6.88;4.50;;;;;;;;;;5032374;28;20094;-76
2023/07/01 11:51:52;;;;;;;8.00;5.18;;;;;;;;;;5032626;28;20094;-76
2023/07/01 11:54:20;;;;;;;8.18;5.30;;;;;;;;;;5033005;28;20072;-76
2023/07/01 11:56:47;;;;;;;6.55;4.30;;;;;;;;;;5032386;28;20084;-76
2023/07/01 11:59:29;;;;;;;6.25;4.93;;;;;;;;;;5032529;28;20345;-77
2023/07/01 12:01:55;;;;;;;6.20;4.60;;;;;;;;;;5032635;28;20046;-76
2023/07/01 12:04:21;;;;;;;6.72;4.22;;;;;;;;;;5032882;28;20056;-76
2023/07/01 12:06:47;;;;;;;7.60;4.45;;;;;;;;;;5032500;28;20049;-76
2023/07/01 12:09:27;;;;;;;4.40;4.00;;;;;;;;;;5031344;28;20546;-76
2023/07/01 12:11:54;;;;;;;5.95;4.20;;;;;;;;;;5032161;28;20061;-76
2023/07/01 12:14:21;;;;;;;6.72;4.40;;;;;;;;;;5032637;28;20052;-76
2023/07/01 12:16:50;;;;;;;7.13;4.68;;;;;;;;;;5032740;28;20045;-76
2023/07/01 12:19:17;;;;;;;7.45;4.30;;;;;;;;;;5035659;28;20522;-76
2023/07/01 12:21:43;;;;;;;4.22;3.55;;;;;;;;;;5036119;28;20464;-76
2023/07/01 12:24:19;;;;;;;5.30;3.50;;;;;;;;;;5036011;28;20049;-76
2023/07/01 12:26:49;;;;;;;7.60;4.35;;;;;;;;;;5035520;28;20057;-76
2023/07/01 12:29:16;;;;;;;4.97;4.20;;;;;;;;;;5035754;28;20095;-77
2023/07/01 12:31:42;;;;;;;8.43;3.97;;;;;;;;;;5035598;28;20052;-76
2023/07/01 12:34:08;;;;;;;7.68;4.15;;;;;;;;;;5035959;28;20472;-77
2023/07/01 12:36:35;;;;;;;5.00;3.75;;;;;;;;;;5035736;28;20053;-76
2023/07/01 12:39:02;;;;;;;5.10;3.05;;;;;;;;;;5035640;28;20050;-76
2023/07/01 12:41:29;;;;;;;3.97;2.78;;;;;;;;;;5035851;28;20091;-76
2023/07/01 12:43:55;;;;;;;3.95;2.53;;;;;;;;;;5036378;28;20053;-76
2023/07/01 12:46:21;;;;;;;3.55;2.58;;;;;;;;;;5035753;28;20041;-76
2023/07/01 12:48:47;;;;;;;6.53;3.20;;;;;;;;;;5035438;28;20076;-76
2023/07/01 12:51:13;;;;;;;3.90;3.33;;;;;;;;;;5035094;28;20408;-76
2023/07/01 12:53:39;;;;;;;7.20;2.83;;;;;;;;;;5035138;28;20045;-77
2023/07/01 12:56:06;;;;;;;9.50;4.05;;;;;;;;;;5020817;28;20045;-76
2023/07/01 12:58:32;;;;;;;4.50;3.70;;;;;;;;;;5015125;28;20623;-76
2023/07/01 13:00:58;;;;;;;6.68;3.95;;;;;;;;;;5015161;28;20093;-76
2023/07/01 13:03:24;;;;;;;5.72;3.70;;;;;;;;;;5015385;28;20060;-76
2023/07/01 13:05:53;;;;;;;5.30;3.30;;;;;;;;;;5015230;28;20425;-76
2023/07/01 13:08:19;;;;;;;5.90;3.45;;;;;;;;;;5015581;28;20115;-76
2023/07/01 13:10:46;;;;;;;14.15;4.05;;;;;;;;;;5015347;28;20045;-76
2023/07/01 13:13:12;;;;;;;4.97;3.40;;;;;;;;;;5015147;28;20619;-77
2023/07/01 13:15:44;;;;;;;5.18;3.35;;;;;;;;;;5015077;28;20049;-78
2023/07/01 13:18:10;;;;;;;4.43;3.72;;;;;;;;;;5013862;28;20385;-76
2023/07/01 13:20:36;;;;;;;4.63;3.42;;;;;;;;;;5015476;28;20053;-77
2023/07/01 13:23:03;;;;;;;5.78;3.55;;;;;;;;;;5014926;28;20100;-76
2023/07/01 13:25:29;;;;;;;2.80;2.40;;;;;;;;;;5014865;28;20112;-77
2023/07/01 13:27:55;;;;;;;3.13;2.45;;;;;;;;;;5015270;28;20077;-77
2023/07/01 13:30:27;;;;;;;4.13;2.70;;;;;;;;;;5013944;28;20099;-77
2023/07/01 13:32:53;;;;;;;7.93;3.35;;;;;;;;;;5015013;28;20451;-77
2023/07/01 13:35:19;;;;;;;5.70;3.20;;;;;;;;;;5015290;28;20104;-77
2023/07/01 13:37:46;;;;;;;5.07;3.58;;;;;;;;;;5014771;28;20069;-77
2023/07/01 13:40:12;;;;;;;5.63;3.85;;;;;;;;;;5015034;28;20053;-77
2023/07/01 13:42:38;;;;;;;8.55;3.58;;;;;;;;;;5014744;28;20042;-77
2023/07/01 13:45:08;;;;;;;6.55;4.00;;;;;;;;;;5014633;28;20046;-76
2023/07/01 13:47:47;;;;;;;7.75;4.30;;;;;;;;;;5014993;28;20085;-77
2023/07/01 13:50:20;;;;;;;6.18;3.58;;;;;;;;;;5014387;28;20097;-76
2023/07/01 13:52:47;;;;;;;5.72;3.58;;;;;;;;;;5015340;28;20100;-76
2023/07/01 13:55:13;;;;;;;5.88;3.72;;;;;;;;;;5012788;28;20038;-77
2023/07/01 13:57:39;;;;;;;9.30;3.88;;;;;;;;;;5013269;28;20049;-78
2023/07/01 14:00:09;;;;;;;7.68;3.95;;;;;;;;;;5014007;28;20046;-78
2023/07/01 14:02:38;;;;;;;8.25;3.70;;;;;;;;;;5013998;28;20042;-78
2023/07/01 14:05:05;;;;;;;5.95;3.33;;;;;;;;;;5014213;28;20054;-77
2023/07/01 14:07:34;;;;;;;6.28;3.33;;;;;;;;;;5013329;28;20045;-77
2023/07/01 14:10:00;;;;;;;5.65;3.35;;;;;;;;;;5014294;28;20050;-77
2023/07/01 14:12:26;;;;;;;7.78;3.50;;;;;;;;;;5014077;28;20492;-78
2023/07/01 14:14:52;;;;;;;5.25;3.15;;;;;;;;;;5015202;28;20057;-77
2023/07/01 14:17:18;;;;;;;6.50;3.40;;;;;;;;;;5033855;28;20049;-77
2023/07/01 14:19:47;;;;;;;4.60;3.20;;;;;;;;;;5033846;28;20052;-77
2023/07/01 14:22:13;;;;;;;6.40;3.10;;;;;;;;;;5033853;28;20042;-77
2023/07/01 14:24:39;;;;;;;3.38;2.70;;;;;;;;;;5033485;28;20151;-77
2023/07/01 14:27:06;;;;;;;5.30;2.90;;;;;;;;;;5034023;28;20061;-77
2023/07/01 14:29:42;;;;;;;5.07;3.60;;;;;;;;;;5034119;28;20049;-77
2023/07/01 14:32:08;;;;;;;9.40;3.58;;;;;;;;;;5033664;28;20533;-77
2023/07/01 14:34:36;;;;;;;13.13;3.38;;;;;;;;;;5033929;28;20045;-78
2023/07/01 14:37:03;;;;;;;6.55;3.00;;;;;;;;;;5033589;28;20045;-77
2023/07/01 14:39:41;;;;;;;4.80;2.70;;;;;;;;;;5033669;28;20049;-77
2023/07/01 14:42:08;;;;;;;5.35;2.80;;;;;;;;;;5033224;28;20042;-77
2023/07/01 14:44:34;;;;;;;5.20;2.80;;;;;;;;;;5033710;28;20053;-77